Air Resources Laboratory banner image
Air Resources Laboratory web site National Oceanic and Atmospheric Administration (NOAA)

ne metar


KAIA 180553Z AUTO 16008KT 10SM VCTS CLR 21/18 A3012 RMK AO2 LTG DSNT W-N PRESRR
 SLP155 T02060183 10272 20200 53006=
KAIA 180619Z AUTO 33019G62KT 1 3/4SM +TSRA BR FEW024 BKN039 BKN050 16/15 A3020
 RMK AO2 PK WND 31062/0610 WSHFT 0601 LTG DSNT W-NE RAB11 TSB12 P0017 T01560150=
KAIA 180634Z AUTO 34015KT 1 3/4SM +TSRA BR FEW009 BKN027 OVC060 15/15 A3019 RMK
 AO2 PK WND 31062/0610 WSHFT 0601 LTG DSNT ALQDS RAB11 TSB12 P0042 T01500150=
KAIA 180638Z AUTO 35014KT 2SM +TSRA BR BKN035 BKN045 OVC070 15/15 A3018 RMK AO2
 PK WND 31062/0610 WSHFT 0601 LTG DSNT ALQDS RAB11 TSB12 P0045 T01500150=
KANW 180555Z AUTO 14007KT 10SM CLR 20/19 A3008 RMK AO2 T02000193 10275 20197=
KAUH 180555Z AUTO 13003KT 4SM BR CLR 19/19 A3011 RMK AO2 T01920192 10253 20192
 402600182=
KBBW 180553Z AUTO 14006KT 10SM FEW016 20/19 A3011 RMK AO2 SLP173 T02000194
 10261 20194 402830183 51006 $=
KBFF 180553Z AUTO 35007KT 10SM SCT110 21/19 A3014 RMK AO2 LTG DSNT NW-NE PRESRR
 SLP159 T02110194 10272 20211 53020=
KBIE 180555Z AUTO 05003KT 2 1/2SM BR OVC003 21/21 A3009 RMK AO2 T02110209 10250
 20207 402510205=
KCDR 180553Z AUTO 30014G27KT 1/2SM +TSRA FG BKN009 BKN033 OVC100 16/16 A3025
 RMK AO2 PK WND 27027/0545 WSHFT 0537 LTG DSNT ALQDS TSB27 SLP224 6////
 T01560156 10300 20156 53067 PNO
KEAR 180557Z AUTO 12007KT 9SM FEW029 21/19 A3011 RMK AO2 SLP177 T02060194 10261
 20206 402780206 51007=
KFET 180555Z AUTO 00000KT 10SM CLR 21/20 A3010 RMK AO2 T02110195 10254 20210
 402570202=
KFNB 180553Z AUTO 00000KT 10SM FEW090 21/20 A3006 RMK AO2 SLP171 T02110200
 10239 20211 402390211 50002=
KGRI 180553Z AUTO 12003KT 7SM FEW007 BKN039 21/20 A3012 RMK AO2 SLP189
 T02110200 10250 20211 402670200 50005=
KHDE 180555Z AUTO 11008KT 7SM SCT004 21/21 A3010 RMK AO2 T02060206 10260 20205
 402670192=
KHSI 180553Z AUTO 12008KT 10SM BKN044 21/20 A3011 RMK AO2 SLP182 T02110200
 10261 20211 402720211 51009=
KIML 180553Z AUTO 15008KT 10SM SCT075 21/20 A3012 RMK AO2 SLP169 T02110200
 10283 20206 53005=
KLBF 180553Z AUTO 14006KT 4SM BR CLR 21/21 A3011 RMK AO2 SLP167 T02060206 10294
 20206 403060183 51008=
KLNK 180554Z AUTO 00000KT 10SM CLR 21/19 A3009 RMK AO2 SLP183 T02060189 10267
 20206 402670200 53005=
KLXN 180555Z AUTO 13008KT 10SM CLR 21/19 A3011 RMK AO2 T02110192 10275 20211
 402870190=
KMCK 180553Z AUTO 10005KT 10SM CLR 22/20 A3009 RMK AO2 SLP164 T02170200 10289
 20217 403060172 50004=
KODX 180553Z AUTO 14008KT 10SM BKN007 OVC012 22/21 A3010 RMK AO2 SLP181
 T02170211 10267 20211 402830183 51003=
KOFF 180556Z AUTO 00000KT 10SM FEW070 19/18 A3008 RMK AO2 SLP186 60000
 T01910183 10249 20188 402530188 52007 $=
KOFK 180556Z AUTO 12003KT 10SM CLR 19/19 A3009 RMK AO2 SLP179 T01940189 10267
 20189 402780189 50007=
KOGA 180555Z AUTO 10004KT 10SM CLR 21/19 A3011 RMK AO2 LTG DSNT N T02070193
 10275 20207=
KOLU 180556Z AUTO 11003KT 2 1/2SM BR FEW013 20/19 A3010 RMK AO2 SLP187
 T02000194 10256 20200 402670194 50004=
KOMA 180552Z 00000KT 10SM SCT080 SCT250 22/19 A3009 RMK AO2 SLP184 T02170189
 10261 20217 402610194 53009=
KONL 180555Z AUTO 14007KT 10SM OVC023 22/20 A3010 RMK AO2 T02160200 10270 20215
 402880187=
KSNY 180553Z AUTO 15012KT 10SM CLR 19/18 A3014 RMK AO2 SLP154 60000 T01940178
 10256 20189 50002=
KTQE 180554Z AUTO 00000KT 10SM CLR 18/17 A3008 RMK AO2 SLP178 T01780172 10256
 20178 402610178 51006=
KVTN 180552Z AUTO 15008KT 10SM CLR 22/19 A3007 RMK AO2 SLP160 T02170194 10294
 20217 403110161 58003=